Main page
METAR-TAF:

METAR-TAF

Airports :

Amborovy Airport

Mahajanga, Madagascar

latitude: 15-40S, longitude: 046-21E, elevation: 26 m

Current weather observation

The report was made 33 minutes ago, at 04:00 UTC
Wind 8 kt from the South/Southeast, varying between East/Southeast and South
Temperature 23°C
Humidity 61%
Pressure 1019 hPa
Visibility 10 km or more
Broken clouds at a height of 4000 ft

METAR: FMNM 240400Z 16008KT 120V190 9999 BKN040 23/15 Q1019 NOSIG

Time: 07:33 (04:33 UTC)

Forecast

The report was made 5 hours and 33 minutes ago, at 23:00 UTC
Forecast valid from 24 at 00 UTC to 24 at 24 UTC
Wind 12 kt from the Southeast
Visibility 10 km or more
Few clouds at a height of 2000 ft

TAF: FMNM 232300Z 2400/2424 14012KT 9999 FEW020

Weather observations and forecasts of more than 4000 airports (METAR and TAF reports).

The available stations are represented by yellow and red dots on the map.

Hover mouse over dot to see the name of the station.

Then click to see weather observations and forecasts.

To change the map : click on the green buttons with a black cross to zoom in, on the green button with a dash to zoom out, or on the green arrows for adjacent maps.


METAR-TAF: